Latest Weather Observations for Wagga Wagga

IDN60801

Issued at 2:02 pm EST Sunday 2 August 2015 (issued every 30 minutes, with the page automatically refreshed every 10 minutes)

About weather observations | Map of weather stations | Latest weather observations for NSW | Other Formats
Station Details ID: 072150 Name: WAGGA WAGGA AMO Lat: -35.16 Lon: 147.46 Height: 212.0 m
Data from the previous 72 hours. | See also: Recent months at Wagga Wagga
Date/Time
EST
Temp
°C
App
Temp
°C
Dew
Point
Rel
Hum
%
Delta-T
°C
Wind Press
QNH
hPa
Press
MSL
hPa
Rain
since 9 am
mm
Dir
 
Spd
km/h
Gust
km/h
Spd
kts
Gust
kts
02/01:30pm 10.4 5.8 6.4 76 1.9 WSW 20 30 11 16 1013.7 1014.0 0.2
02/01:29pm 10.6 6.1 6.8 77 1.8 WSW 20 30 11 16 1013.7 1014.0 0.2
02/01:00pm 9.0 4.5 7.1 88 0.9 WSW 20 28 11 15 1014.3 1014.6 0.2
02/12:30pm 9.5 3.2 7.2 85 1.1 SW 30 39 16 21 1013.8 1014.1 0.2
02/12:00pm 9.8 4.9 8.4 91 0.7 SW 24 28 13 15 1013.4 1013.7 0.2
02/11:30am 9.6 4.7 8.6 93 0.5 WSW 24 33 13 18 1013.7 1014.0 0.0
02/11:00am 10.9 7.0 9.5 91 0.7 WSW 20 30 11 16 1012.7 1013.0 0.0
02/10:30am 11.4 7.7 9.6 89 0.9 W 19 32 10 17 1013.4 1013.7 0.0
02/10:00am 12.1 10.2 8.9 81 1.6 NW 9 13 5 7 1013.5 1013.8 0.0
02/09:30am 11.8 10.3 9.2 84 1.3 N 7 9 4 5 1012.9 1013.2 0.0
02/09:00am 11.9 9.6 8.9 82 1.5 ENE 11 13 6 7 1012.9 1013.2 29.2
02/08:00am 9.5 7.7 7.9 90 0.8 S 7 9 4 5 1012.9 1013.2 29.2
02/07:30am 9.3 6.2 7.4 88 0.9 WSW 13 17 7 9 1012.1 1012.4 29.2
02/06:30am 10.4 7.0 7.5 82 1.4 E 15 19 8 10 1011.0 1011.3 29.2
02/05:30am 10.2 7.5 8.8 91 0.7 ENE 13 17 7 9 1011.4 1011.7 29.2
02/05:00am 9.9 6.9 9.1 95 0.4 ENE 15 19 8 10 1011.9 1012.2 29.0
02/04:30am 9.9 5.9 9.1 95 0.4 ENE 20 30 11 16 1012.2 1012.5 29.0
02/04:00am 9.9 6.5 9.3 96 0.3 ENE 17 22 9 12 1013.3 1013.6 28.6
02/03:30am 9.8 6.8 9.4 97 0.2 ENE 15 19 8 10 1013.5 1013.8 28.2
02/03:00am 9.9 7.0 9.5 97 0.2 ENE 15 19 8 10 1014.4 1014.7 27.2
02/02:30am 10.0 7.0 9.4 96 0.3 E 15 19 8 10 1014.8 1015.1 26.4
02/02:00am 10.0 7.5 9.6 97 0.2 E 13 17 7 9 1015.1 1015.4 25.0
02/01:58am 10.0 7.1 9.6 97 0.2 E 15 17 8 9 1015.3 1015.6 25.0
02/01:30am 9.7 7.8 9.1 96 0.3 ESE 9 11 5 6 1016.3 1016.6 23.0
02/01:12am 9.7 7.8 9.1 96 0.3 ENE 9 11 5 6 1016.4 1016.7 21.4
02/01:00am 9.7 7.0 9.1 96 0.3 SE 13 17 7 9 1016.1 1016.4 20.4
02/12:55am 9.8 7.5 9.0 95 0.4 SE 11 17 6 9 1015.9 1016.2 19.8
02/12:30am 10.2 8.5 10.0 99 0.1 SE 9 15 5 8 1016.7 1017.0 17.6
02/12:23am 10.3 8.3 10.1 99 0.1 ESE 11 13 6 7 1016.7 1017.0 17.2
02/12:00am 10.4 10.5 10.2 99 0.1 CALM 0 6 0 3 1017.4 1017.7 14.4
 
Date/Time
EST
Temp
°C
App
Temp
°C
Dew
Point
Rel
Hum
%
Delta-T
°C
Wind Press
QNH
hPa
Press
MSL
hPa
Rain
since 9 am
mm
Dir
 
Spd
km/h
Gust
km/h
Spd
kts
Gust
kts
01/11:30pm 10.5 9.2 10.1 97 0.2 NNE 7 9 4 5 1016.9 1017.2 11.2
01/11:09pm 10.6 9.4 10.2 97 0.2 N 7 9 4 5 1017.1 1017.4 9.6
01/11:01pm 10.6 9.4 10.2 97 0.2 NNE 7 9 4 5 1017.2 1017.5 9.2
01/11:00pm 10.6 9.4 10.2 97 0.2 NNE 7 9 4 5 1017.2 1017.5 9.2
01/10:30pm 10.5 8.9 10.3 99 0.1 N 9 13 5 7 1017.6 1017.9 8.4
01/10:03pm 10.6 9.4 10.2 97 0.2 N 7 9 4 5 1017.4 1017.7 7.4
01/10:00pm 10.6 9.6 10.2 97 0.2 NNE 6 9 3 5 1017.5 1017.8 7.2
01/09:45pm 10.5 9.4 10.1 97 0.2 NNE 6 9 3 5 1016.9 1017.2 6.8
01/09:35pm 10.5 8.9 10.1 97 0.2 NNE 9 11 5 6 1016.7 1017.0 6.8
01/09:30pm 10.5 9.8 10.1 97 0.2 NNE 4 9 2 5 1016.7 1017.0 6.8
01/09:00pm 10.5 10.6 10.1 97 0.2 CALM 0 0 0 0 1017.3 1017.6 5.4
01/08:53pm 10.5 10.6 10.1 97 0.2 CALM 0 0 0 0 1016.8 1017.1 5.2
01/08:30pm 10.6 9.6 10.2 97 0.2 NNE 6 7 3 4 1017.1 1017.4 5.0
01/08:00pm 10.9 9.8 10.1 95 0.4 NW 6 7 3 4 1017.3 1017.6 5.0
01/07:30pm 10.6 9.5 10.0 96 0.3 SSW 6 7 3 4 1017.1 1017.4 5.0
01/07:00pm 10.6 8.5 9.8 95 0.4 SSW 11 15 6 8 1016.8 1017.1 4.8
01/06:30pm 10.5 8.1 10.1 97 0.2 SW 13 15 7 8 1016.6 1016.9 4.8
01/06:00pm 10.9 9.3 10.3 96 0.3 NNE 9 11 5 6 1016.1 1016.4 4.6
01/05:30pm 11.0 9.7 9.8 92 0.6 ENE 7 7 4 4 1015.9 1016.2 3.8
01/05:00pm 11.0 9.9 9.8 92 0.6 ENE 6 11 3 6 1015.3 1015.6 3.2
01/04:30pm 11.2 9.5 9.8 91 0.7 ESE 9 11 5 6 1015.3 1015.6 2.8
01/04:00pm 11.5 10.1 9.7 89 0.9 ENE 7 9 4 5 1015.5 1015.8 2.2
01/03:30pm 11.9 11.0 9.3 84 1.3 SW 4 7 2 4 1015.7 1016.0 1.8
01/03:00pm 12.1 11.1 8.9 81 1.6 NE 4 7 2 4 1015.3 1015.6 1.8
01/02:30pm 12.1 10.2 8.9 81 1.6 NNE 9 13 5 7 1015.0 1015.3 1.8
01/02:00pm 11.8 10.8 9.0 83 1.4 NNW 4 9 2 5 1015.0 1015.3 1.8
01/01:30pm 11.4 9.0 8.8 84 1.3 NW 11 15 6 8 1015.4 1015.7 1.8
01/01:23pm 11.3 8.4 8.3 82 1.5 NW 13 22 7 12 1015.3 1015.6 1.8
01/01:10pm 11.4 7.3 7.9 79 1.7 WNW 19 26 10 14 1015.9 1016.2 1.4
01/01:00pm 11.9 7.8 7.8 76 2.0 WNW 19 26 10 14 1016.1 1016.4 0.8
01/12:30pm 13.8 10.5 6.4 61 3.6 WNW 13 22 7 12 1015.9 1016.2 0.0
01/12:00pm 12.9 11.2 8.5 74 2.2 W 7 9 4 5 1016.0 1016.3 0.0
01/11:30am 12.6 10.8 8.0 73 2.3 W 7 11 4 6 1015.9 1016.2 0.0
01/11:00am 12.0 11.0 7.5 74 2.2 WNW 2 7 1 4 1016.2 1016.5 0.0
01/10:30am 11.6 10.5 7.1 74 2.2 NNE 2 7 1 4 1016.2 1016.5 0.0
01/10:00am 10.9 8.8 6.7 75 2.0 NE 7 11 4 6 1016.3 1016.6 0.0
01/09:30am 10.7 8.1 6.2 74 2.1 NE 9 11 5 6 1016.3 1016.7 0.0
01/09:00am 9.8 8.2 6.2 78 1.7 E 4 7 2 4 1016.7 1017.1 0.2
01/08:30am 8.6 6.6 7.1 90 0.7 SE 7 7 4 4 1016.7 1017.1 0.2
01/08:00am 8.2 6.0 6.3 88 0.9 E 7 9 4 5 1016.8 1017.2 0.2
01/07:30am 7.5 6.6 6.2 91 0.6 CALM 0 6 0 3 1016.8 1017.2 0.2
01/07:00am 7.4 5.1 5.9 90 0.7 ENE 7 9 4 5 1016.8 1017.2 0.2
01/06:30am 7.2 4.6 5.9 91 0.6 E 9 11 5 6 1016.7 1017.1 0.2
01/06:00am 6.9 3.7 5.3 89 0.7 SE 11 11 6 6 1016.6 1017.0 0.0
01/05:30am 6.8 3.6 5.2 89 0.7 ESE 11 11 6 6 1016.4 1016.8 0.0
01/05:00am 6.7 3.9 5.1 89 0.7 E 9 11 5 6 1016.6 1017.0 0.0
01/04:30am 6.7 3.9 5.1 89 0.7 ESE 9 11 5 6 1016.9 1017.4 0.0
01/04:00am 6.0 3.1 4.9 93 0.5 ESE 9 11 5 6 1017.1 1017.6 0.0
01/03:30am 5.3 1.9 4.1 92 0.5 ESE 11 13 6 7 1017.3 1017.8 0.0
01/03:00am 4.5 1.5 4.0 97 0.2 ESE 9 11 5 6 1017.8 1018.3 0.0
01/02:30am 5.6 2.7 4.4 92 0.5 ENE 9 11 5 6 1018.5 1019.0 0.0
01/02:00am 5.3 2.7 4.1 92 0.5 ENE 7 9 4 5 1018.9 1019.4 0.0
01/01:30am 5.1 2.4 3.9 92 0.5 ENE 7 9 4 5 1019.3 1019.7 0.0
01/01:00am 4.5 1.8 3.5 93 0.4 ESE 7 11 4 6 1019.6 1020.0 0.0
01/12:30am 4.1 2.2 2.9 92 0.5 E 2 7 1 4 1019.8 1020.2 0.0
01/12:00am 5.6 2.2 4.2 91 0.6 E 11 13 6 7 1019.7 1020.1 0.0
 
Date/Time
EST
Temp
°C
App
Temp
°C
Dew
Point
Rel
Hum
%
Delta-T
°C
Wind Press
QNH
hPa
Press
MSL
hPa
Rain
since 9 am
mm
Dir
 
Spd
km/h
Gust
km/h
Spd
kts
Gust
kts
31/11:30pm 5.6 2.2 4.2 91 0.6 E 11 11 6 6 1020.1 1020.5 0.0
31/11:00pm 4.9 1.8 3.7 92 0.5 E 9 11 5 6 1020.4 1020.8 0.0
31/10:30pm 4.6 1.4 3.2 91 0.6 ESE 9 9 5 5 1020.9 1021.4 0.0
31/10:00pm 5.4 4.2 4.5 94 0.4 CALM 0 0 0 0 1021.1 1021.6 0.0
31/09:30pm 5.0 3.7 4.1 94 0.4 CALM 0 0 0 0 1021.2 1021.7 0.0
31/09:00pm 5.4 4.1 4.0 91 0.6 CALM 0 0 0 0 1020.9 1021.4 0.0
31/08:30pm 7.5 5.0 4.8 83 1.2 NE 7 7 4 4 1020.6 1021.0 0.0
31/08:00pm 7.6 5.1 4.7 82 1.3 NNE 7 9 4 5 1020.8 1021.2 0.0
31/07:30pm 6.9 4.5 5.3 89 0.7 NE 7 9 4 5 1020.5 1020.9 0.0
31/07:00pm 6.6 5.4 4.5 86 0.9 CALM 0 6 0 3 1020.1 1020.5 0.0
31/06:30pm 8.2 6.1 5.6 84 1.2 NE 6 6 3 3 1019.7 1020.1 0.0
31/06:00pm 9.7 7.9 5.6 75 1.9 NE 4 9 2 5 1019.6 1020.0 0.0
31/05:30pm 10.8 8.7 5.9 72 2.3 N 6 7 3 4 1019.7 1020.1 0.0
31/05:00pm 12.1 9.7 5.2 62 3.2 NW 7 11 4 6 1019.4 1019.8 0.0
31/04:30pm 12.6 8.9 4.6 58 3.7 NW 13 19 7 10 1019.6 1020.0 0.0
31/04:00pm 13.2 10.5 5.6 60 3.6 NW 9 15 5 8 1019.8 1020.2 0.0
31/03:30pm 13.5 10.4 5.5 58 3.8 NNW 11 17 6 9 1019.7 1020.1 0.0
31/03:00pm 12.3 8.3 5.0 61 3.4 WNW 15 22 8 12 1020.0 1020.4 0.0
31/02:30pm 13.3 9.6 4.7 56 4.0 NW 13 19 7 10 1020.0 1020.4 0.0
31/02:00pm 13.4 9.0 4.6 55 4.1 NW 17 24 9 13 1020.2 1020.6 0.0
31/01:30pm 13.3 9.3 5.0 57 3.9 WNW 15 17 8 9 1020.2 1020.6 0.0
31/01:00pm 12.8 8.7 4.3 56 3.9 NW 15 22 8 12 1020.5 1020.9 0.0
31/12:30pm 13.5 10.3 5.0 56 4.0 NNW 11 20 6 11 1020.8 1021.2 0.0
31/12:00pm 13.0 10.0 6.1 63 3.3 NNW 11 17 6 9 1021.3 1021.8 0.0
31/11:30am 12.4 9.4 6.1 65 3.0 N 11 15 6 8 1021.5 1022.0 0.0
31/11:00am 11.7 9.0 5.7 66 2.8 N 9 15 5 8 1021.6 1022.1 0.0
31/10:30am 10.8 8.1 5.4 69 2.5 N 9 13 5 7 1021.7 1022.2 0.0
31/10:00am 10.3 7.9 5.3 71 2.3 NW 7 11 4 6 1021.8 1022.3 0.0
31/09:30am 9.6 6.8 5.0 73 2.1 NW 9 11 5 6 1021.6 1022.1 0.0
31/09:00am 8.4 5.6 5.1 80 1.5 NW 9 13 5 7 1021.2 1021.7 0.4
31/08:30am 7.6 4.9 3.9 77 1.6 N 7 9 4 5 1021.0 1021.5 0.4
31/08:00am 6.8 4.3 4.8 87 0.9 N 7 9 4 5 1020.7 1021.1 0.4
31/07:30am 5.2 2.1 3.8 91 0.6 NNW 9 9 5 5 1020.3 1020.7 0.4
31/07:00am 4.4 1.7 3.9 97 0.2 ENE 7 9 4 5 1020.0 1020.4 0.4
31/06:30am 4.2 1.2 4.0 99 0.1 ENE 9 9 5 5 1019.6 1020.0 0.4
31/06:00am 4.3 2.9 3.8 97 0.2 CALM 0 0 0 0 1019.2 1019.6 0.4
31/05:30am 4.8 3.5 4.1 95 0.3 CALM 0 0 0 0 1019.1 1019.5 0.4
31/05:00am 6.4 4.2 5.3 93 0.5 NE 6 7 3 4 1018.5 1019.0 0.4
31/04:30am 7.3 6.2 5.3 87 0.9 CALM 0 0 0 0 1018.6 1019.1 0.4
31/04:00am 7.7 6.8 6.2 90 0.7 CALM 0 0 0 0 1018.7 1019.2 0.4
31/03:30am 7.8 5.7 5.8 87 0.9 SSE 6 7 3 4 1018.7 1019.2 0.4
31/03:00am 7.5 6.6 6.2 91 0.6 CALM 0 0 0 0 1018.7 1019.2 0.4
31/02:30am 6.9 5.9 5.8 93 0.5 CALM 0 0 0 0 1018.8 1019.3 0.4
31/02:00am 7.6 5.5 5.8 88 0.8 NE 6 7 3 4 1019.4 1019.8 0.4
31/01:30am 8.1 5.5 6.1 87 0.9 ENE 9 11 5 6 1019.7 1020.1 0.4
31/01:00am 7.8 5.3 6.5 91 0.6 ENE 9 11 5 6 1019.8 1020.2 0.4
31/12:30am 8.0 5.9 5.8 86 1.0 S 6 13 3 7 1020.4 1020.8 0.2
31/12:00am 7.6 6.8 6.3 91 0.6 CALM 0 0 0 0 1020.5 1020.9 0.0
 
Date/Time
EST
Temp
°C
App
Temp
°C
Dew
Point
Rel
Hum
%
Delta-T
°C
Wind Press
QNH
hPa
Press
MSL
hPa
Rain
since 9 am
mm
Dir
 
Spd
km/h
Gust
km/h
Spd
kts
Gust
kts
30/11:30pm 8.2 6.1 6.0 86 1.0 E 6 7 3 4 1020.6 1021.0 0.0
30/11:00pm 8.2 5.5 5.8 85 1.1 ENE 9 11 5 6 1020.5 1020.9 0.0
30/10:30pm 8.6 6.3 5.8 82 1.3 E 7 9 4 5 1020.9 1021.4 0.0
30/10:00pm 8.2 7.4 6.7 90 0.7 CALM 0 0 0 0 1020.8 1021.2 0.0
30/09:30pm 8.3 7.6 6.8 90 0.7 CALM 0 0 0 0 1021.0 1021.5 0.0
30/09:00pm 8.6 7.0 6.2 85 1.1 WNW 4 6 2 3 1020.9 1021.4 0.0
30/08:30pm 9.0 6.7 5.7 80 1.5 NW 7 9 4 5 1020.9 1021.4 0.0
30/08:00pm 9.5 6.3 5.3 75 1.9 NNW 11 13 6 7 1020.2 1020.6 0.0
30/07:30pm 9.9 6.6 4.8 70 2.3 N 11 13 6 7 1020.2 1020.6 0.0
30/07:00pm 10.1 6.9 5.1 71 2.3 N 11 13 6 7 1019.9 1020.3 0.0
30/06:30pm 10.2 7.0 4.9 69 2.4 N 11 13 6 7 1020.4 1020.8 0.0
30/06:00pm 10.5 7.6 4.8 68 2.6 N 9 13 5 7 1020.5 1020.9 0.0
30/05:30pm 10.7 7.0 4.5 65 2.8 NW 13 17 7 9 1020.7 1021.1 0.0
30/05:00pm 11.2 7.1 4.1 61 3.2 NNW 15 20 8 11 1020.6 1021.0 0.0
30/04:30pm 11.5 7.8 4.2 61 3.3 NW 13 19 7 10 1021.1 1021.6 0.0
30/04:00pm 11.9 7.7 3.9 58 3.6 NW 15 19 8 10 1021.2 1021.7 0.0
30/03:30pm 12.3 7.7 3.6 55 3.9 NW 17 26 9 14 1021.1 1021.6 0.0
30/03:00pm 12.3 7.7 3.9 56 3.8 NW 17 26 9 14 1021.1 1021.6 0.0
30/02:30pm 12.7 8.1 3.6 54 4.1 NW 17 28 9 15 1021.4 1021.9 0.0

Other Formats:

Comma delimited format used in spreadsheet applications
http://www.bom.gov.au/fwo/IDN60801/IDN60801.94910.axf

JavaScript Object Notation format (JSON) in row-major order
http://www.bom.gov.au/fwo/IDN60801/IDN60801.94910.json